Time;durP1;ratioP1;P1;durP2;ratioP2;P2;SDS_P1;SDS_P2;PMS_P1;PMS_P2;Temp;Humidity;BMP_temperature;BMP_pressure;BME280_temperature;BME280_humidity;BME280_pressure;Samples;Min_cycle;Max_cycle;Signal;HPM_P1;HPM_P2
2021/11/15 00:02:09;;;;;;;7.55;7.13;;;11.70;80.50;;;;;;5045253;28;20040;-81
2021/11/15 00:04:36;;;;;;;6.63;6.32;;;11.70;80.50;;;;;;5045934;28;20040;-81
2021/11/15 00:07:02;;;;;;;7.28;6.88;;;11.60;80.40;;;;;;5047379;28;20025;-81
2021/11/15 00:09:28;;;;;;;7.22;6.82;;;11.60;80.50;;;;;;5049725;28;20029;-81
2021/11/15 00:11:54;;;;;;;7.13;6.82;;;11.60;80.50;;;;;;5031266;28;20405;-81
2021/11/15 00:14:20;;;;;;;6.80;6.47;;;11.60;80.60;;;;;;5044974;28;20045;-81
2021/11/15 00:16:46;;;;;;;7.97;7.40;;;11.50;80.50;;;;;;5038451;28;20034;-81
2021/11/15 00:19:12;;;;;;;7.15;6.75;;;11.50;81.30;;;;;;5039385;28;20036;-81
2021/11/15 00:21:38;;;;;;;8.13;7.53;;;11.50;80.60;;;;;;5042141;28;20543;-81
2021/11/15 00:24:05;;;;;;;7.82;7.43;;;11.40;80.60;;;;;;5048845;28;20033;-81
2021/11/15 00:26:31;;;;;;;6.85;6.45;;;11.40;80.60;;;;;;5046366;28;20030;-81
2021/11/15 00:28:58;;;;;;;7.10;6.63;;;11.40;80.70;;;;;;5029003;28;20486;-81
2021/11/15 00:31:24;;;;;;;7.80;7.30;;;11.40;80.70;;;;;;5030071;28;20033;-81
2021/11/15 00:33:51;;;;;;;6.72;6.43;;;11.30;80.70;;;;;;5040342;28;20033;-81
2021/11/15 00:36:17;;;;;;;6.72;6.43;;;11.30;80.70;;;;;;5043716;28;20450;-81
2021/11/15 00:38:44;;;;;;;7.00;6.50;;;11.30;80.70;;;;;;5040774;28;20040;-81
2021/11/15 00:41:10;;;;;;;7.35;6.90;;;11.30;80.70;;;;;;5031494;28;20119;-81
2021/11/15 00:43:36;;;;;;;7.30;6.80;;;11.30;80.70;;;;;;5045440;28;20041;-81
2021/11/15 00:46:02;;;;;;;6.63;6.32;;;11.20;80.70;;;;;;5047796;28;20040;-81
2021/11/15 00:48:28;;;;;;;6.40;6.10;;;11.20;80.70;;;;;;5041477;28;20040;-81
2021/11/15 00:50:55;;;;;;;7.80;7.35;;;11.20;80.80;;;;;;5045638;28;20040;-81
2021/11/15 00:53:21;;;;;;;7.20;6.80;;;11.20;80.80;;;;;;5046918;28;20506;-81
2021/11/15 00:55:47;;;;;;;6.95;6.65;;;11.20;80.80;;;;;;5045985;28;20025;-81
2021/11/15 00:58:13;;;;;;;6.63;6.32;;;11.20;80.80;;;;;;5042674;28;20041;-81
2021/11/15 01:00:41;;;;;;;8.70;7.80;;;11.10;80.70;;;;;;5034488;28;20509;-81
2021/11/15 01:03:08;;;;;;;8.70;6.88;;;11.10;80.70;;;;;;5020994;28;20032;-81
2021/11/15 01:05:35;;;;;;;7.20;6.68;;;11.10;80.70;;;;;;5042497;28;20025;-81
2021/11/15 01:08:01;;;;;;;6.72;6.38;;;11.10;80.70;;;;;;5047947;28;20022;-81
2021/11/15 01:10:27;;;;;;;7.72;7.32;;;11.10;81.50;;;;;;5018015;28;20025;-81
2021/11/15 01:12:53;;;;;;;7.60;7.18;;;11.00;80.70;;;;;;5048536;28;20041;-81
2021/11/15 01:15:23;;;;;;;8.43;7.82;;;11.00;80.80;;;;;;5035718;28;20478;-81
2021/11/15 01:17:49;;;;;;;8.30;7.70;;;11.00;80.80;;;;;;5039278;28;20052;-81
2021/11/15 01:20:18;;;;;;;7.10;6.50;;;11.00;80.80;;;;;;5047384;28;20072;-81
2021/11/15 01:22:44;;;;;;;8.38;7.22;;;10.90;80.80;;;;;;5047004;28;20040;-81
2021/11/15 01:25:10;;;;;;;6.63;6.25;;;10.90;80.80;;;;;;5030514;28;20481;-81
2021/11/15 01:27:36;;;;;;;6.55;6.25;;;10.90;80.80;;;;;;5051980;28;20044;-81
2021/11/15 01:30:04;;;;;;;7.05;6.60;;;10.90;80.80;;;;;;5031662;28;20059;-79
2021/11/15 01:32:30;;;;;;;6.70;6.40;;;10.90;80.80;;;;;;5041884;28;20034;-81
2021/11/15 01:34:56;;;;;;;7.55;7.05;;;10.80;80.80;;;;;;5040310;28;20036;-81
2021/11/15 01:37:22;;;;;;;7.28;6.68;;;10.80;80.80;;;;;;5049368;28;20385;-81
2021/11/15 01:39:48;;;;;;;8.38;7.63;;;10.80;80.80;;;;;;5047905;28;22523;-81
2021/11/15 01:42:14;;;;;;;7.63;7.15;;;10.80;80.90;;;;;;5041232;28;20053;-81
2021/11/15 01:44:40;;;;;;;7.95;7.55;;;10.70;80.80;;;;;;5044926;28;20032;-81
2021/11/15 01:47:07;;;;;;;8.07;7.32;;;10.70;80.80;;;;;;5025973;28;20041;-81
2021/11/15 01:49:33;;;;;;;7.82;7.32;;;10.70;80.80;;;;;;5041013;28;20036;-81
2021/11/15 01:51:59;;;;;;;7.72;7.20;;;10.70;81.60;;;;;;5036741;28;20375;-81
2021/11/15 01:54:28;;;;;;;6.78;6.35;;;10.70;81.00;;;;;;5028704;28;20434;-81
2021/11/15 01:56:54;;;;;;;6.47;6.18;;;10.60;80.90;;;;;;5051626;28;20037;-81
2021/11/15 01:59:20;;;;;;;7.45;6.93;;;10.60;80.90;;;;;;5044639;28;20037;-81
2021/11/15 02:01:46;;;;;;;7.82;7.25;;;10.60;80.90;;;;;;5033858;28;20402;-81
2021/11/15 02:04:13;;;;;;;7.78;7.03;;;10.60;80.90;;;;;;5034486;28;20041;-81
2021/11/15 02:06:39;;;;;;;6.88;6.57;;;10.60;80.90;;;;;;5025378;28;20047;-81
2021/11/15 02:09:05;;;;;;;7.63;6.97;;;10.60;80.90;;;;;;5037004;28;20037;-81
2021/11/15 02:11:32;;;;;;;6.70;6.40;;;10.50;80.90;;;;;;5041811;28;20028;-81
2021/11/15 02:13:59;;;;;;;7.40;6.90;;;10.50;80.90;;;;;;5030654;28;20040;-81
2021/11/15 02:16:25;;;;;;;10.05;8.00;;;10.50;80.90;;;;;;5051001;28;20036;-81
2021/11/15 02:18:52;;;;;;;7.13;6.72;;;10.50;80.90;;;;;;5034299;28;20044;-81
2021/11/15 02:21:18;;;;;;;7.15;6.80;;;10.50;80.90;;;;;;5035038;28;20026;-81
2021/11/15 02:23:45;;;;;;;7.88;7.45;;;10.50;80.90;;;;;;5018301;28;20398;-81
2021/11/15 02:26:13;;;;;;;8.25;7.85;;;10.40;81.00;;;;;;5043787;28;20025;-81
2021/11/15 02:28:43;;;;;;;7.90;7.50;;;10.40;81.00;;;;;;5046231;28;20513;-81
2021/11/15 02:31:11;;;;;;;8.50;7.55;;;10.40;81.00;;;;;;5033502;28;20881;-81
2021/11/15 02:33:37;;;;;;;8.27;7.88;;;10.40;81.00;;;;;;5032189;28;20056;-81
2021/11/15 02:36:04;;;;;;;8.40;7.93;;;10.40;81.00;;;;;;5046283;28;20064;-81
2021/11/15 02:38:30;;;;;;;7.78;7.22;;;10.40;81.00;;;;;;5043592;28;20056;-81
2021/11/15 02:40:57;;;;;;;8.60;8.10;;;10.30;81.00;;;;;;5049979;28;20024;-81
2021/11/15 02:43:23;;;;;;;11.32;8.27;;;10.30;81.00;;;;;;5038713;28;20037;-81
2021/11/15 02:45:50;;;;;;;7.20;6.68;;;10.30;80.90;;;;;;5016554;28;20041;-81
2021/11/15 02:48:20;;;;;;;9.27;8.65;;;10.30;80.90;;;;;;5040047;28;20032;-81
2021/11/15 02:50:46;;;;;;;8.75;8.15;;;10.30;80.90;;;;;;5038076;28;20398;-81
2021/11/15 02:53:13;;;;;;;8.88;8.13;;;10.30;81.00;;;;;;5030771;28;20049;-81
2021/11/15 02:55:39;;;;;;;9.52;8.55;;;10.30;80.90;;;;;;5046176;28;20033;-81
2021/11/15 02:58:07;;;;;;;8.38;7.85;;;10.20;80.90;;;;;;5033150;28;20033;-81
2021/11/15 03:00:39;;;;;;;9.48;8.98;;;10.20;81.00;;;;;;5032737;28;20048;-81
2021/11/15 03:03:06;;;;;;;10.57;9.93;;;10.20;81.00;;;;;;5037013;28;20036;-81
2021/11/15 03:05:34;;;;;;;10.35;9.75;;;10.20;81.00;;;;;;5044131;28;21065;-81
2021/11/15 03:08:00;;;;;;;12.73;9.75;;;10.20;81.10;;;;;;5041523;28;20037;-81
2021/11/15 03:10:26;;;;;;;10.07;9.48;;;10.20;81.00;;;;;;5047000;28;20032;-81
2021/11/15 03:12:53;;;;;;;8.70;8.30;;;10.20;81.00;;;;;;5027468;28;20386;-80
2021/11/15 03:15:24;;;;;;;10.02;9.23;;;10.20;81.00;;;;;;5038762;28;20478;-80
2021/11/15 03:17:58;;;;;;;10.80;9.73;;;10.10;81.00;;;;;;5012388;28;20037;-81
2021/11/15 03:20:26;;;;;;;8.23;7.82;;;10.10;81.00;;;;;;5044692;28;20364;-80
2021/11/15 03:22:52;;;;;;;10.85;10.32;;;10.10;81.00;;;;;;5035209;28;20032;-80
2021/11/15 03:25:18;;;;;;;9.85;9.32;;;10.10;81.00;;;;;;5029193;28;20029;-80
2021/11/15 03:27:44;;;;;;;8.57;8.18;;;10.00;80.90;;;;;;5033528;28;20101;-80
2021/11/15 03:30:11;;;;;;;9.70;9.15;;;10.00;80.90;;;;;;5039857;28;20033;-80
2021/11/15 03:32:38;;;;;;;9.00;8.23;;;9.90;81.00;;;;;;5029207;28;20040;-80
2021/11/15 03:35:04;;;;;;;9.00;8.40;;;9.90;81.00;;;;;;5025129;28;20048;-80
2021/11/15 03:37:31;;;;;;;9.57;8.85;;;9.90;81.00;;;;;;5024985;28;20025;-80
2021/11/15 03:39:57;;;;;;;9.73;8.93;;;9.90;81.00;;;;;;5029272;28;20409;-80
2021/11/15 03:42:25;;;;;;;10.30;9.60;;;9.80;81.00;;;;;;5047428;28;20035;-80
2021/11/15 03:44:51;;;;;;;8.60;8.10;;;9.80;81.00;;;;;;5043699;28;20028;-80
2021/11/15 03:47:19;;;;;;;8.05;7.53;;;9.70;81.00;;;;;;5043986;28;20037;-80
2021/11/15 03:49:45;;;;;;;7.38;6.90;;;9.70;81.10;;;;;;5039038;28;20037;-80
2021/11/15 03:52:11;;;;;;;8.60;7.80;;;9.70;81.10;;;;;;5047461;28;20033;-80
2021/11/15 03:54:37;;;;;;;8.82;8.18;;;9.70;81.10;;;;;;5043138;28;20497;-80
2021/11/15 03:57:03;;;;;;;8.48;7.93;;;9.70;81.10;;;;;;5030886;28;20029;-80
2021/11/15 03:59:29;;;;;;;7.95;7.55;;;9.70;81.10;;;;;;5038966;28;20060;-80
2021/11/15 04:01:55;;;;;;;9.15;8.65;;;9.70;81.10;;;;;;5037358;28;20036;-80
2021/11/15 04:04:27;;;;;;;7.60;7.20;;;9.80;81.10;;;;;;5050178;28;20036;-80
2021/11/15 04:06:53;;;;;;;7.15;6.75;;;9.80;81.00;;;;;;5035282;28;20029;-80
2021/11/15 04:09:20;;;;;;;8.80;7.90;;;9.70;81.00;;;;;;5040939;28;20036;-80
2021/11/15 04:11:46;;;;;;;8.45;7.80;;;9.70;81.00;;;;;;5044457;28;20048;-80
2021/11/15 04:14:13;;;;;;;9.30;8.52;;;9.70;81.00;;;;;;5041916;28;20037;-80
2021/11/15 04:16:40;;;;;;;9.38;8.50;;;9.70;81.00;;;;;;5036568;28;20040;-80
2021/11/15 04:19:12;;;;;;;8.65;8.15;;;9.70;81.00;;;;;;5046723;28;20029;-80
2021/11/15 04:21:38;;;;;;;7.95;7.53;;;9.70;81.00;;;;;;5046821;28;20029;-80
2021/11/15 04:24:05;;;;;;;8.75;7.65;;;9.70;81.00;;;;;;5026524;28;20037;-80
2021/11/15 04:26:32;;;;;;;9.75;9.05;;;9.70;81.00;;;;;;5036878;28;20026;-80
2021/11/15 04:28:58;;;;;;;8.85;8.32;;;9.70;81.00;;;;;;5041757;28;20099;-80
2021/11/15 04:31:25;;;;;;;10.93;9.60;;;9.60;80.90;;;;;;5045311;28;20521;-80
2021/11/15 04:33:51;;;;;;;17.05;10.48;;;9.60;80.90;;;;;;5047110;28;20041;-80
2021/11/15 04:36:17;;;;;;;11.63;10.65;;;9.60;81.00;;;;;;5045954;28;20044;-80
2021/11/15 04:38:44;;;;;;;8.63;8.10;;;9.60;81.00;;;;;;5041499;28;20505;-80
2021/11/15 04:41:10;;;;;;;11.13;9.35;;;9.60;81.00;;;;;;5028478;28;20458;-80
2021/11/15 04:43:36;;;;;;;9.90;9.35;;;9.60;81.00;;;;;;5030300;28;20046;-81
2021/11/15 04:46:02;;;;;;;9.95;9.32;;;9.50;81.00;;;;;;5030833;28;20060;-80
2021/11/15 04:48:28;;;;;;;8.85;8.45;;;9.50;81.00;;;;;;5032604;28;20037;-80
2021/11/15 04:50:54;;;;;;;11.25;10.13;;;9.50;81.10;;;;;;5022875;28;20032;-80
2021/11/15 04:53:20;;;;;;;8.75;8.35;;;9.50;81.10;;;;;;5040061;28;20037;-80
2021/11/15 04:55:46;;;;;;;10.07;9.55;;;9.50;81.10;;;;;;5036320;28;20045;-80
2021/11/15 04:58:13;;;;;;;10.27;9.35;;;9.50;81.10;;;;;;5039594;28;20422;-80
2021/11/15 05:00:39;;;;;;;9.77;9.27;;;9.50;81.00;;;;;;5047882;28;20045;-80
2021/11/15 05:03:05;;;;;;;11.68;11.02;;;9.50;80.90;;;;;;5041804;28;20021;-80
2021/11/15 05:05:31;;;;;;;10.32;9.43;;;9.40;80.90;;;;;;5048407;28;20044;-80
2021/11/15 05:07:57;;;;;;;8.68;8.18;;;9.40;81.00;;;;;;5048029;28;20029;-80
2021/11/15 05:10:25;;;;;;;9.75;8.68;;;9.40;81.00;;;;;;5033071;28;20037;-81
2021/11/15 05:12:52;;;;;;;9.35;8.45;;;9.40;81.10;;;;;;5051470;28;20024;-80
2021/11/15 05:15:19;;;;;;;8.85;8.18;;;9.40;81.00;;;;;;5048672;28;20036;-80
2021/11/15 05:17:46;;;;;;;9.30;8.13;;;9.30;80.90;;;;;;5048182;28;20405;-80
2021/11/15 05:20:12;;;;;;;8.43;8.00;;;9.30;81.00;;;;;;5037431;28;20391;-80
2021/11/15 05:22:38;;;;;;;10.18;9.55;;;9.30;81.00;;;;;;5046173;28;20483;-80
2021/11/15 05:25:05;;;;;;;9.27;8.80;;;9.20;81.00;;;;;;5050861;28;20044;-81
2021/11/15 05:27:31;;;;;;;8.63;8.13;;;9.10;81.00;;;;;;5036331;28;20032;-81
2021/11/15 05:29:57;;;;;;;9.43;8.93;;;9.10;81.10;;;;;;5048925;28;20635;-81
2021/11/15 05:32:24;;;;;;;8.43;8.02;;;9.10;81.10;;;;;;5045259;28;20426;-81
2021/11/15 05:34:50;;;;;;;9.75;9.10;;;9.00;81.20;;;;;;5022912;28;20052;-81
2021/11/15 05:37:17;;;;;;;11.15;10.55;;;8.90;81.30;;;;;;5051941;28;20389;-81
2021/11/15 05:39:43;;;;;;;7.88;7.30;;;8.80;81.50;;;;;;5051304;28;20040;-80
2021/11/15 05:42:09;;;;;;;12.02;8.05;;;8.80;81.70;;;;;;5053111;28;20025;-80
2021/11/15 05:44:35;;;;;;;8.63;6.93;;;8.70;81.80;;;;;;5052697;28;20397;-80
2021/11/15 05:47:02;;;;;;;6.03;5.72;;;8.70;81.90;;;;;;5051171;28;20033;-81
2021/11/15 05:49:28;;;;;;;8.18;7.35;;;8.70;82.00;;;;;;5035274;28;20041;-81
2021/11/15 05:51:54;;;;;;;8.75;7.90;;;8.60;82.10;;;;;;5049683;28;20512;-81
2021/11/15 05:54:20;;;;;;;7.15;6.72;;;8.60;82.20;;;;;;5032283;28;20049;-81
2021/11/15 05:56:47;;;;;;;6.70;6.40;;;8.60;82.20;;;;;;5066732;28;20037;-81
2021/11/15 05:59:14;;;;;;;8.07;7.47;;;8.60;82.20;;;;;;5051341;28;20033;-80
2021/11/15 06:01:40;;;;;;;6.95;6.55;;;8.60;82.10;;;;;;5051200;28;20040;-81
2021/11/15 06:04:06;;;;;;;8.60;8.00;;;8.60;82.10;;;;;;5051194;28;20025;-80
2021/11/15 06:06:33;;;;;;;6.63;6.32;;;8.70;82.00;;;;;;5051702;28;20048;-81
2021/11/15 06:08:59;;;;;;;7.30;6.90;;;8.70;82.00;;;;;;5050165;28;20033;-81
2021/11/15 06:11:25;;;;;;;7.95;7.30;;;8.70;81.90;;;;;;5050313;28;20029;-81
2021/11/15 06:13:51;;;;;;;7.65;7.13;;;8.80;82.00;;;;;;5050138;28;20036;-80
2021/11/15 06:16:17;;;;;;;15.85;7.32;;;8.80;81.90;;;;;;5049603;28;20029;-80
2021/11/15 06:18:44;;;;;;;6.32;5.82;;;8.80;81.90;;;;;;5050326;28;20048;-80
2021/11/15 06:21:10;;;;;;;6.63;6.30;;;8.80;82.60;;;;;;5052138;28;20041;-80
2021/11/15 06:23:36;;;;;;;7.38;6.78;;;8.80;81.80;;;;;;5050539;28;20040;-80
2021/11/15 06:26:02;;;;;;;9.55;8.75;;;8.80;81.80;;;;;;5050730;28;20033;-81
2021/11/15 06:28:28;;;;;;;7.70;7.28;;;8.90;81.80;;;;;;5028527;28;20104;-81
2021/11/15 06:30:54;;;;;;;6.70;6.40;;;8.90;81.70;;;;;;5034650;28;20033;-81
2021/11/15 06:33:20;;;;;;;7.22;6.80;;;9.00;81.70;;;;;;5052876;28;20036;-81
2021/11/15 06:35:47;;;;;;;6.38;6.07;;;9.00;81.70;;;;;;5051158;28;20524;-81
2021/11/15 06:38:13;;;;;;;8.20;7.45;;;9.00;81.60;;;;;;5050348;28;20033;-81
2021/11/15 06:40:40;;;;;;;6.97;6.68;;;9.00;81.60;;;;;;5052818;28;20418;-80
2021/11/15 06:43:06;;;;;;;7.25;6.80;;;9.00;81.70;;;;;;5036586;28;20508;-80
2021/11/15 06:45:33;;;;;;;6.85;6.53;;;9.00;81.60;;;;;;5050255;28;20029;-81
2021/11/15 06:47:59;;;;;;;8.43;7.75;;;9.00;81.70;;;;;;5050569;28;20033;-81
2021/11/15 06:50:26;;;;;;;8.65;7.75;;;9.10;81.70;;;;;;5047485;28;20036;-84
2021/11/15 06:52:52;;;;;;;7.60;7.10;;;9.10;81.70;;;;;;5058928;28;20041;-84
2021/11/15 06:55:20;;;;;;;9.02;8.32;;;9.10;81.60;;;;;;5050725;28;20512;-84
2021/11/15 06:57:46;;;;;;;9.20;8.50;;;9.10;81.50;;;;;;5049526;28;20029;-83
2021/11/15 07:00:17;;;;;;;8.60;8.00;;;9.20;81.60;;;;;;5043414;28;20053;-81
2021/11/15 07:02:43;;;;;;;8.85;8.00;;;9.20;81.60;;;;;;5049609;28;20421;-81
2021/11/15 07:05:11;;;;;;;7.35;6.97;;;9.20;81.50;;;;;;5049435;28;20037;-82
2021/11/15 07:07:38;;;;;;;9.13;8.30;;;9.20;81.40;;;;;;5030650;28;20034;-82
2021/11/15 07:10:08;;;;;;;8.73;8.15;;;9.20;81.50;;;;;;5048178;28;20033;-82
2021/11/15 07:12:34;;;;;;;7.57;7.18;;;9.30;81.50;;;;;;5051760;28;20370;-82
2021/11/15 07:15:01;;;;;;;7.40;7.00;;;9.30;81.40;;;;;;5049969;28;20052;-81
2021/11/15 07:17:27;;;;;;;7.88;7.47;;;9.30;81.40;;;;;;5049349;28;20029;-81
2021/11/15 07:19:53;;;;;;;10.20;8.82;;;9.30;81.60;;;;;;5048888;28;20028;-81
2021/11/15 07:22:19;;;;;;;7.47;7.10;;;9.30;81.50;;;;;;5050932;28;20036;-81
2021/11/15 07:24:47;;;;;;;8.52;7.95;;;9.30;81.50;;;;;;5048723;28;20044;-81
2021/11/15 07:27:14;;;;;;;8.02;7.43;;;9.30;81.40;;;;;;5051040;28;20025;-81
2021/11/15 07:29:40;;;;;;;8.35;7.85;;;9.30;81.40;;;;;;5047753;28;20025;-81
2021/11/15 07:32:13;;;;;;;9.70;9.00;;;9.40;81.50;;;;;;5047377;28;20108;-81
2021/11/15 07:34:40;;;;;;;8.82;8.23;;;9.30;81.40;;;;;;5049070;28;20074;-81
2021/11/15 07:37:07;;;;;;;9.02;8.13;;;9.40;81.40;;;;;;5031824;28;20637;-80
2021/11/15 07:39:41;;;;;;;7.07;6.47;;;9.40;81.40;;;;;;5049951;28;20043;-81
2021/11/15 07:42:12;;;;;;;9.75;9.02;;;9.40;81.50;;;;;;5016299;28;20037;-81
2021/11/15 07:44:38;;;;;;;7.28;6.97;;;9.40;81.50;;;;;;5046748;28;20025;-81
2021/11/15 07:47:04;;;;;;;9.35;8.38;;;9.40;81.50;;;;;;5048415;28;20037;-82
2021/11/15 07:49:31;;;;;;;8.68;8.13;;;9.40;81.50;;;;;;5048653;28;20037;-81
2021/11/15 07:51:57;;;;;;;8.38;7.88;;;9.40;81.50;;;;;;5048843;28;20052;-81
2021/11/15 07:54:23;;;;;;;7.28;6.90;;;9.50;81.40;;;;;;5050220;28;20422;-85
2021/11/15 07:56:49;;;;;;;9.52;8.35;;;9.50;81.60;;;;;;5049125;28;20039;-88
2021/11/15 07:59:15;;;;;;;8.40;7.90;;;9.70;81.80;;;;;;5047107;28;20051;-89
2021/11/15 08:01:41;;;;;;;9.40;8.70;;;10.00;81.60;;;;;;5049881;28;20374;-86
2021/11/15 08:04:08;;;;;;;8.93;7.97;;;10.20;81.30;;;;;;5039788;28;20040;-86
2021/11/15 08:06:34;;;;;;;9.00;8.40;;;10.40;81.00;;;;;;5046647;28;20052;-87
2021/11/15 08:09:00;;;;;;;8.77;8.07;;;10.70;80.80;;;;;;5034322;28;20037;-89
2021/11/15 08:11:29;;;;;;;8.93;8.23;;;10.90;80.70;;;;;;5044530;28;20021;-89
2021/11/15 08:13:55;;;;;;;8.35;7.95;;;11.10;80.60;;;;;;5026656;28;20033;-90
2021/11/15 08:16:21;;;;;;;9.30;8.73;;;11.30;80.30;;;;;;5050675;28;20033;-82
2021/11/15 08:18:47;;;;;;;10.30;9.13;;;11.40;80.20;;;;;;5032578;28;20069;-86
2021/11/15 08:21:14;;;;;;;8.90;8.35;;;11.50;80.20;;;;;;5045191;28;20169;-81
2021/11/15 08:23:41;;;;;;;23.60;8.82;;;11.50;80.10;;;;;;5044967;28;20034;-81
2021/11/15 08:26:29;;;;;;;9.82;8.93;;;11.40;80.10;;;;;;5045449;28;20029;-81
2021/11/15 08:29:05;;;;;;;9.95;8.25;;;11.20;80.20;;;;;;5046253;28;20387;-81
2021/11/15 08:31:31;;;;;;;10.15;8.55;;;11.10;80.60;;;;;;5044374;28;20037;-81
2021/11/15 08:33:57;;;;;;;7.60;7.05;;;10.90;80.80;;;;;;5049422;28;20025;-81
2021/11/15 08:36:24;;;;;;;8.48;7.88;;;10.80;80.90;;;;;;5046488;28;20052;-80
2021/11/15 08:38:52;;;;;;;9.05;8.48;;;10.70;81.10;;;;;;5047282;28;20028;-80
2021/11/15 08:41:24;;;;;;;9.70;8.85;;;10.70;81.30;;;;;;5052904;28;20021;-81
2021/11/15 08:43:52;;;;;;;8.20;7.68;;;10.60;81.80;;;;;;5053664;28;20036;-81
2021/11/15 08:46:19;;;;;;;8.85;8.25;;;10.50;81.40;;;;;;5052519;28;20033;-81
2021/11/15 08:48:46;;;;;;;8.93;8.13;;;10.50;81.50;;;;;;5035464;28;20370;-81
2021/11/15 08:51:12;;;;;;;9.43;8.82;;;10.40;81.50;;;;;;5054360;28;20182;-81
2021/11/15 08:53:39;;;;;;;9.10;8.32;;;10.40;81.50;;;;;;5053047;28;20032;-80
2021/11/15 08:56:06;;;;;;;9.68;8.77;;;10.40;81.50;;;;;;5050386;28;20490;-80
2021/11/15 08:58:32;;;;;;;9.52;8.77;;;10.40;81.70;;;;;;5052427;28;20016;-80
2021/11/15 09:00:58;;;;;;;7.68;7.28;;;10.30;81.60;;;;;;5051783;28;20033;-80
2021/11/15 09:03:24;;;;;;;10.35;9.65;;;10.30;81.60;;;;;;5054083;28;20052;-80
2021/11/15 09:05:51;;;;;;;9.38;8.85;;;10.30;81.50;;;;;;5052305;28;20030;-80
2021/11/15 09:08:17;;;;;;;13.73;8.82;;;10.30;81.50;;;;;;5052160;28;20017;-80
2021/11/15 09:10:44;;;;;;;8.68;8.23;;;10.30;81.50;;;;;;5052494;28;20040;-80
2021/11/15 09:13:11;;;;;;;7.97;7.57;;;10.20;81.50;;;;;;5053123;28;20029;-80
2021/11/15 09:15:37;;;;;;;13.88;8.48;;;10.20;81.50;;;;;;5052732;28;20504;-80
2021/11/15 09:18:03;;;;;;;9.35;8.85;;;10.20;81.50;;;;;;5054060;28;20036;-80
2021/11/15 09:20:29;;;;;;;10.23;9.32;;;10.20;81.50;;;;;;5053214;28;20048;-80
2021/11/15 09:22:55;;;;;;;10.00;9.25;;;10.20;81.50;;;;;;5052328;28;20037;-80
2021/11/15 09:25:21;;;;;;;8.00;7.60;;;10.20;81.50;;;;;;5051332;28;20052;-80
2021/11/15 09:27:48;;;;;;;9.50;8.85;;;10.20;81.80;;;;;;5051541;28;20052;-80
2021/11/15 09:30:14;;;;;;;9.43;8.00;;;10.20;81.40;;;;;;5031656;28;20048;-80
2021/11/15 09:32:40;;;;;;;7.43;7.07;;;10.20;81.30;;;;;;5050433;28;20039;-80
2021/11/15 09:35:07;;;;;;;7.85;7.45;;;10.20;81.30;;;;;;5051717;28;20049;-80
2021/11/15 09:37:34;;;;;;;8.07;7.68;;;10.10;81.40;;;;;;5051876;28;20035;-80
2021/11/15 09:40:00;;;;;;;8.45;7.88;;;10.10;81.50;;;;;;5052476;28;20029;-80
2021/11/15 09:42:26;;;;;;;9.27;8.25;;;10.10;81.40;;;;;;5053599;28;20470;-80
2021/11/15 09:44:52;;;;;;;7.70;7.32;;;10.20;81.50;;;;;;5051541;28;20033;-80
2021/11/15 09:47:19;;;;;;;8.85;8.43;;;10.20;81.40;;;;;;5050918;28;20040;-80
2021/11/15 09:49:45;;;;;;;8.50;8.10;;;10.20;81.30;;;;;;5052066;28;20044;-80
2021/11/15 09:52:11;;;;;;;7.53;7.13;;;10.30;81.30;;;;;;5051211;28;20413;-83
2021/11/15 09:54:37;;;;;;;7.05;6.65;;;10.30;81.20;;;;;;5052060;28;20029;-80
2021/11/15 09:57:04;;;;;;;8.63;8.02;;;10.30;81.10;;;;;;5035023;28;20036;-81
2021/11/15 09:59:31;;;;;;;7.47;7.10;;;10.30;81.10;;;;;;5049006;28;20402;-85
2021/11/15 10:01:58;;;;;;;8.40;7.90;;;10.30;81.10;;;;;;5031106;28;20057;-84
2021/11/15 10:04:24;;;;;;;7.63;7.22;;;10.40;81.10;;;;;;5045257;28;20459;-83
2021/11/15 10:06:57;;;;;;;7.63;7.22;;;10.40;81.00;;;;;;5039621;28;20226;-82
2021/11/15 10:09:30;;;;;;;8.30;7.80;;;10.40;80.90;;;;;;5036729;28;20037;-82
2021/11/15 10:11:56;;;;;;;6.90;6.57;;;10.40;80.90;;;;;;5047757;28;20033;-82
2021/11/15 10:14:23;;;;;;;7.65;7.25;;;10.40;80.90;;;;;;5046011;28;20025;-83
2021/11/15 10:16:54;;;;;;;7.15;6.70;;;10.40;80.80;;;;;;5026780;28;20045;-81
2021/11/15 10:19:22;;;;;;;6.82;6.53;;;10.40;80.80;;;;;;5029784;28;20037;-81
2021/11/15 10:21:55;;;;;;;7.55;6.93;;;10.40;80.80;;;;;;5050248;28;20433;-81
2021/11/15 10:24:34;;;;;;;7.40;6.70;;;10.40;80.70;;;;;;5037519;28;20029;-87
2021/11/15 10:27:04;;;;;;;7.63;7.03;;;10.50;80.80;;;;;;5051478;28;20478;-86
2021/11/15 10:29:38;;;;;;;8.00;7.18;;;10.50;80.70;;;;;;5048839;28;20025;-86
2021/11/15 10:32:04;;;;;;;7.13;6.72;;;10.60;80.70;;;;;;5044366;28;20055;-85
2021/11/15 10:34:37;;;;;;;9.55;7.13;;;10.60;80.60;;;;;;5043214;28;20052;-82
2021/11/15 10:37:19;;;;;;;7.13;6.72;;;10.60;80.60;;;;;;5048981;28;20405;-83
2021/11/15 10:39:55;;;;;;;7.10;6.80;;;10.60;80.50;;;;;;5049108;28;20374;-80
2021/11/15 10:42:24;;;;;;;7.38;7.00;;;10.60;80.40;;;;;;5049003;28;20036;-83
2021/11/15 10:45:00;;;;;;;7.57;7.25;;;10.60;80.40;;;;;;5046234;28;20044;-83
2021/11/15 10:47:29;;;;;;;8.20;7.80;;;10.70;80.40;;;;;;5044108;28;20044;-86
2021/11/15 10:50:25;;;;;;;8.90;8.32;;;10.70;80.40;;;;;;5038442;28;20032;-86
2021/11/15 10:53:08;;;;;;;10.68;10.15;;;10.70;80.40;;;;;;5043171;28;20041;-82
2021/11/15 10:55:46;;;;;;;9.63;9.02;;;10.70;80.20;;;;;;5050558;28;20251;-84
2021/11/15 10:58:19;;;;;;;9.52;9.02;;;10.70;80.20;;;;;;5048900;28;20028;-83
2021/11/15 11:00:57;;;;;;;9.82;9.23;;;10.70;80.10;;;;;;5048116;28;20401;-83
2021/11/15 11:03:26;;;;;;;10.55;9.98;;;10.80;80.20;;;;;;5047374;28;20021;-83
2021/11/15 11:05:54;;;;;;;9.38;8.77;;;10.80;80.10;;;;;;5046386;28;20032;-83
2021/11/15 11:08:24;;;;;;;16.50;10.07;;;10.80;80.20;;;;;;5041723;28;20037;-82
2021/11/15 11:11:08;;;;;;;10.60;9.63;;;10.90;80.20;;;;;;5036486;28;20388;-82
2021/11/15 11:13:48;;;;;;;11.20;10.60;;;10.90;80.00;;;;;;5050566;28;20047;-79
2021/11/15 11:16:15;;;;;;;12.38;11.43;;;11.00;79.90;;;;;;5048728;28;20041;-79
2021/11/15 11:19:03;;;;;;;11.25;10.65;;;11.00;79.90;;;;;;5049746;28;20033;-80
2021/11/15 11:26:34;;;;;;;10.45;9.95;;;11.00;79.70;;;;;;5048331;28;20493;-81
2021/11/15 11:29:24;;;;;;;9.73;8.80;;;11.00;79.70;;;;;;5049519;28;20040;-81
2021/11/15 11:31:52;;;;;;;10.45;9.85;;;11.10;79.80;;;;;;5049091;28;20056;-81
2021/11/15 11:34:19;;;;;;;10.73;10.13;;;11.10;79.70;;;;;;5049479;28;20033;-80
2021/11/15 11:36:45;;;;;;;13.23;12.52;;;11.10;79.60;;;;;;5048650;28;20056;-80
2021/11/15 11:39:11;;;;;;;9.15;8.70;;;11.10;79.60;;;;;;5051136;28;20082;-82
2021/11/15 11:41:40;;;;;;;10.65;9.55;;;11.20;79.60;;;;;;5048903;28;20048;-82
2021/11/15 11:44:08;;;;;;;8.48;8.07;;;11.20;79.50;;;;;;5048846;28;20446;-80
2021/11/15 11:46:36;;;;;;;9.73;9.20;;;11.20;79.30;;;;;;5048081;28;20485;-82
2021/11/15 11:49:03;;;;;;;9.40;8.60;;;11.30;79.40;;;;;;5047527;28;20041;-81
2021/11/15 11:51:29;;;;;;;9.55;8.98;;;11.20;79.20;;;;;;5049556;28;20036;-83
2021/11/15 11:54:20;;;;;;;9.20;8.70;;;11.30;79.20;;;;;;5048410;28;20584;-80
2021/11/15 11:57:11;;;;;;;9.27;8.88;;;11.30;79.20;;;;;;5048224;28;20043;-80
2021/11/15 11:59:41;;;;;;;9.20;8.68;;;11.40;79.20;;;;;;5048678;28;20036;-80
2021/11/15 12:02:09;;;;;;;8.45;8.05;;;11.50;79.10;;;;;;5047817;28;20033;-79
2021/11/15 12:04:47;;;;;;;9.98;8.63;;;11.60;79.00;;;;;;5048529;28;20033;-79
2021/11/15 12:07:23;;;;;;;8.35;7.95;;;11.60;78.90;;;;;;5049619;28;20041;-79
2021/11/15 12:09:49;;;;;;;8.90;8.50;;;11.60;78.60;;;;;;5047634;28;20029;-80
2021/11/15 12:12:15;;;;;;;9.40;8.85;;;11.70;78.40;;;;;;5033101;28;20036;-80
2021/11/15 12:14:42;;;;;;;9.27;8.77;;;11.60;78.40;;;;;;5047247;28;20470;-80
2021/11/15 12:17:16;;;;;;;8.88;8.38;;;11.70;78.40;;;;;;5047729;28;20512;-79
2021/11/15 12:19:57;;;;;;;8.75;8.35;;;11.80;78.50;;;;;;5049093;28;20032;-79
2021/11/15 12:22:27;;;;;;;9.05;8.65;;;11.90;78.30;;;;;;5048039;28;20037;-79
2021/11/15 12:25:06;;;;;;;10.07;9.38;;;12.00;78.10;;;;;;5047593;28;20702;-80
2021/11/15 12:27:45;;;;;;;12.60;11.93;;;12.10;77.60;;;;;;5047335;28;20029;-80
2021/11/15 12:30:25;;;;;;;11.25;10.75;;;12.20;77.50;;;;;;5048975;28;20029;-80
2021/11/15 12:33:16;;;;;;;11.88;10.85;;;12.10;77.00;;;;;;5048219;28;20029;-79
2021/11/15 12:36:01;;;;;;;10.77;10.23;;;12.20;77.10;;;;;;5049308;28;20041;-80
2021/11/15 12:38:49;;;;;;;11.23;10.70;;;12.10;77.20;;;;;;5045440;28;20037;-79
2021/11/15 12:41:18;;;;;;;10.60;10.05;;;12.10;77.20;;;;;;5048118;28;20111;-80
2021/11/15 12:44:04;;;;;;;11.20;10.60;;;12.20;77.00;;;;;;5045466;28;20037;-80
2021/11/15 12:46:49;;;;;;;10.60;10.10;;;12.20;77.10;;;;;;5048097;28;20040;-80
2021/11/15 12:49:49;;;;;;;11.30;10.80;;;12.20;77.10;;;;;;5049166;28;20021;-79
2021/11/15 12:52:20;;;;;;;11.18;10.68;;;12.20;77.10;;;;;;5034550;28;20025;-80
2021/11/15 12:55:16;;;;;;;13.55;10.90;;;12.20;77.00;;;;;;5048993;28;20033;-80
2021/11/15 12:57:46;;;;;;;11.05;10.45;;;12.20;77.00;;;;;;5045664;28;20052;-80
2021/11/15 13:00:14;;;;;;;11.30;10.70;;;12.20;77.00;;;;;;5048879;28;20055;-79